Time;durP1;ratioP1;P1;durP2;ratioP2;P2;SDS_P1;SDS_P2;PMS_P1;PMS_P2;Temp;Humidity;BMP_temperature;BMP_pressure;BME280_temperature;BME280_humidity;BME280_pressure;Samples;Min_cycle;Max_cycle;Signal;HPM_P1;HPM_P2
2023/03/05 00:01:23;;;;;;;17.92;8.80;;;;;;;2.96;71.33;99391.75;5052839;28;20029;-75
2023/03/05 00:03:51;;;;;;;17.20;8.77;;;;;;;2.71;71.86;99349.41;5053300;28;20422;-74
2023/03/05 00:06:17;;;;;;;16.15;8.63;;;;;;;3.01;72.20;99391.66;5052864;28;20048;-74
2023/03/05 00:08:42;;;;;;;17.55;9.13;;;;;;;2.98;72.08;99389.97;5053050;28;20032;-74
2023/03/05 00:11:10;;;;;;;15.27;9.07;;;;;;;2.90;72.43;99373.84;5052580;28;20028;-75
2023/03/05 00:13:36;;;;;;;15.20;7.97;;;;;;;2.72;72.43;99341.63;5052496;28;20033;-75
2023/03/05 00:16:08;;;;;;;14.73;8.20;;;;;;;3.00;72.33;99384.81;5052600;28;20141;-74
2023/03/05 00:18:34;;;;;;;14.15;7.80;;;;;;;3.02;72.51;99387.34;5052591;28;20050;-74
2023/03/05 00:20:59;;;;;;;17.63;8.80;;;;;;;3.03;72.16;99394.19;5052823;28;20106;-75
2023/03/05 00:23:25;;;;;;;16.85;8.73;;;;;;;2.85;72.58;99355.09;5052371;28;20577;-75
2023/03/05 00:25:51;;;;;;;18.77;10.07;;;;;;;2.91;72.30;99364.44;5052463;28;20053;-76
2023/03/05 00:28:16;;;;;;;13.18;7.68;;;;;;;2.83;72.57;99349.16;5052213;28;20021;-76
2023/03/05 00:30:41;;;;;;;21.38;9.98;;;;;;;2.99;72.16;99370.25;5052430;28;20476;-75
2023/03/05 00:33:07;;;;;;;32.92;15.63;;;;;;;2.95;72.62;99372.06;5051359;28;20021;-75
2023/03/05 00:35:41;;;;;;;33.95;16.98;;;;;;;2.91;72.50;99357.56;5052316;28;20399;-75
2023/03/05 00:38:07;;;;;;;21.85;11.85;;;;;;;2.82;72.87;99342.28;5052435;28;20029;-75
2023/03/05 00:40:37;;;;;;;22.25;12.25;;;;;;;2.98;73.02;99363.41;5052175;28;20114;-75
2023/03/05 00:43:02;;;;;;;23.88;13.88;;;;;;;2.95;73.28;99353.19;5052142;28;20477;-75
2023/03/05 00:45:28;;;;;;;20.92;12.65;;;;;;;2.94;73.36;99360.06;5052199;28;20075;-75
2023/03/05 00:47:53;;;;;;;25.52;13.60;;;;;;;2.81;73.63;99334.63;5052206;28;20021;-76
2023/03/05 00:50:18;;;;;;;20.30;11.18;;;;;;;2.78;74.29;99330.38;5051506;28;20021;-75
2023/03/05 00:52:44;;;;;;;17.10;9.70;;;;;;;2.81;74.16;99340.59;5052479;28;20036;-75
2023/03/05 00:55:09;;;;;;;17.92;9.15;;;;;;;2.91;73.90;99349.00;5052079;28;20059;-74
2023/03/05 00:57:34;;;;;;;19.45;9.00;;;;;;;2.91;74.05;99346.44;5051878;28;20384;-74
2023/03/05 01:00:00;;;;;;;20.08;9.93;;;;;;;2.91;73.91;99341.28;5052373;28;20025;-74
2023/03/05 01:02:25;;;;;;;19.70;10.13;;;;;;;2.74;73.16;99305.63;5050711;28;20450;-74
2023/03/05 01:04:50;;;;;;;21.10;11.70;;;;;;;2.75;73.13;99304.75;5051978;28;20025;-74
2023/03/05 01:07:16;;;;;;;26.27;14.50;;;;;;;2.70;72.91;99298.84;5051827;28;20021;-74
2023/03/05 01:09:41;;;;;;;26.05;15.05;;;;;;;2.73;73.05;99312.47;5051892;28;20033;-74
2023/03/05 01:12:07;;;;;;;25.13;14.68;;;;;;;2.53;73.28;99272.59;5052053;28;20040;-74
2023/03/05 01:14:33;;;;;;;27.13;14.10;;;;;;;2.70;73.62;99309.13;5051790;28;20028;-74
2023/03/05 01:16:58;;;;;;;19.77;10.45;;;;;;;2.78;73.87;99322.66;5051887;28;20390;-74
2023/03/05 01:19:24;;;;;;;17.85;9.88;;;;;;;2.81;74.65;99325.16;5051973;28;20040;-72
2023/03/05 01:21:49;;;;;;;14.55;7.78;;;;;;;2.66;74.64;99290.34;5050518;28;20049;-74
2023/03/05 01:24:14;;;;;;;12.82;6.80;;;;;;;2.70;75.26;99299.69;5051458;28;20067;-74
2023/03/05 01:26:40;;;;;;;13.43;6.57;;;;;;;2.81;75.46;99316.63;5051982;28;20053;-74
2023/03/05 01:29:05;;;;;;;12.50;6.43;;;;;;;2.76;75.38;99309.00;5051627;28;20392;-74
2023/03/05 01:31:30;;;;;;;12.75;5.97;;;;;;;2.79;75.46;99320.97;5051623;28;20024;-74
2023/03/05 01:33:56;;;;;;;10.43;5.63;;;;;;;2.77;75.50;99312.41;5051803;28;20112;-75
2023/03/05 01:36:23;;;;;;;18.60;8.18;;;;;;;2.73;75.66;99309.88;5051590;28;20166;-74
2023/03/05 01:38:50;;;;;;;14.45;7.53;;;;;;;2.60;75.75;99289.59;5051706;28;20032;-74
2023/03/05 01:41:16;;;;;;;18.92;7.72;;;;;;;2.56;75.70;99275.97;5051258;28;20033;-74
2023/03/05 01:43:42;;;;;;;14.00;6.28;;;;;;;2.68;75.67;99295.44;5051796;28;20029;-74
2023/03/05 01:46:16;;;;;;;11.30;5.18;;;;;;;2.75;75.91;99307.31;5051693;28;20638;-74
2023/03/05 01:48:46;;;;;;;13.35;5.47;;;;;;;2.68;76.00;99295.44;5051688;28;20037;-74
2023/03/05 01:51:12;;;;;;;11.00;5.47;;;;;;;2.73;75.82;99301.34;5051537;28;20021;-73
2023/03/05 01:53:38;;;;;;;11.43;5.78;;;;;;;2.67;75.73;99293.75;5051309;28;20029;-74
2023/03/05 01:56:04;;;;;;;9.30;4.93;;;;;;;2.58;76.12;99283.66;5051370;28;20519;-74
2023/03/05 01:58:30;;;;;;;14.85;6.35;;;;;;;2.68;76.25;99295.44;5051460;28;20059;-74
2023/03/05 02:00:55;;;;;;;12.93;7.00;;;;;;;2.70;76.31;99301.41;5051568;28;20032;-74
2023/03/05 02:03:22;;;;;;;11.35;6.75;;;;;;;2.55;75.83;99281.16;5054226;28;20487;-74
2023/03/05 02:05:48;;;;;;;10.75;6.18;;;;;;;2.49;75.36;99277.00;5055565;28;20408;-74
2023/03/05 02:08:17;;;;;;;11.85;5.40;;;;;;;2.55;75.39;99287.13;5055304;28;20037;-74
2023/03/05 02:10:49;;;;;;;13.52;5.57;;;;;;;2.58;74.39;99286.25;5055087;28;20025;-74
2023/03/05 02:13:21;;;;;;;9.43;5.05;;;;;;;2.45;74.11;99253.06;5055441;28;20119;-74
2023/03/05 02:15:48;;;;;;;20.42;8.63;;;;;;;2.46;74.34;99253.91;5055414;28;20104;-74
2023/03/05 02:18:15;;;;;;;22.10;11.25;;;;;;;2.56;74.86;99267.41;5054906;28;20550;-74
2023/03/05 02:20:50;;;;;;;17.98;10.00;;;;;;;2.41;75.29;99248.00;5054828;28;20037;-74
2023/03/05 02:23:17;;;;;;;14.02;7.82;;;;;;;2.53;75.30;99260.63;5054955;28;20082;-73
2023/03/05 02:25:42;;;;;;;20.63;8.95;;;;;;;2.41;74.41;99246.28;5055149;28;20439;-74
2023/03/05 02:28:15;;;;;;;15.70;7.13;;;;;;;2.38;74.77;99240.34;5054996;28;20025;-74
2023/03/05 02:30:40;;;;;;;9.88;5.15;;;;;;;2.52;74.26;99258.06;5054558;28;20072;-74
2023/03/05 02:33:06;;;;;;;11.65;5.88;;;;;;;2.53;74.12;99258.06;5055047;28;20112;-74
2023/03/05 02:35:31;;;;;;;8.98;4.90;;;;;;;2.37;73.68;99228.41;5054517;28;20025;-74
2023/03/05 02:37:56;;;;;;;11.80;5.30;;;;;;;2.37;73.69;99230.97;5054779;28;20380;-74
2023/03/05 02:40:22;;;;;;;10.68;5.70;;;;;;;2.37;73.81;99231.81;5054560;28;20044;-74
2023/03/05 02:42:48;;;;;;;20.20;8.05;;;;;;;2.44;73.77;99246.22;5054619;28;20480;-74
2023/03/05 02:45:14;;;;;;;12.80;6.57;;;;;;;2.16;73.50;99193.69;5054623;28;20025;-74
2023/03/05 02:47:39;;;;;;;16.35;7.43;;;;;;;2.27;73.44;99216.59;5054288;28;20033;-73
2023/03/05 02:50:06;;;;;;;14.23;6.85;;;;;;;2.37;73.34;99244.66;5054353;28;20032;-74
2023/03/05 02:52:32;;;;;;;10.07;4.45;;;;;;;2.36;73.42;99237.81;5054281;28;20527;-73
2023/03/05 02:54:57;;;;;;;15.05;5.40;;;;;;;2.27;73.50;99230.28;5054513;28;20025;-74
2023/03/05 02:57:23;;;;;;;8.10;4.28;;;;;;;2.21;73.40;99209.84;5054178;28;20361;-73
2023/03/05 02:59:49;;;;;;;11.85;4.90;;;;;;;2.18;73.23;99210.75;5054359;28;20089;-74
2023/03/05 03:02:15;;;;;;;15.80;7.05;;;;;;;2.19;73.28;99203.88;5054230;28;20029;-74
2023/03/05 03:04:41;;;;;;;11.35;5.32;;;;;;;2.35;73.05;99227.56;5053873;28;20040;-74
2023/03/05 03:07:07;;;;;;;10.32;4.75;;;;;;;2.20;73.10;99210.75;5054253;28;20093;-74
2023/03/05 03:09:34;;;;;;;9.10;3.70;;;;;;;2.14;72.75;99200.56;5053962;28;20119;-74
2023/03/05 03:12:01;;;;;;;10.88;4.68;;;;;;;2.14;73.22;99210.84;5054015;28;20150;-74
2023/03/05 03:14:26;;;;;;;9.43;4.20;;;;;;;2.10;73.34;99204.06;5053925;28;20111;-74
2023/03/05 03:16:51;;;;;;;11.52;5.93;;;;;;;2.18;73.43;99217.63;5053888;28;20580;-73
2023/03/05 03:19:16;;;;;;;13.65;5.40;;;;;;;2.19;73.77;99214.16;5053783;28;20040;-73
2023/03/05 03:21:42;;;;;;;8.70;4.95;;;;;;;2.23;74.16;99216.66;5053793;28;20022;-73
2023/03/05 03:24:07;;;;;;;7.43;4.07;;;;;;;2.08;74.24;99195.56;5054009;28;20032;-74
2023/03/05 03:26:32;;;;;;;12.90;5.25;;;;;;;2.20;74.57;99210.75;5053699;28;20072;-73
2023/03/05 03:28:58;;;;;;;7.28;3.75;;;;;;;2.14;74.95;99203.97;5053887;28;20048;-73
2023/03/05 03:31:23;;;;;;;9.38;4.40;;;;;;;2.06;75.49;99189.59;5053476;28;20075;-74
2023/03/05 03:33:49;;;;;;;7.78;3.92;;;;;;;2.19;75.59;99206.44;5053573;28;20025;-74
2023/03/05 03:36:15;;;;;;;8.90;4.00;;;;;;;2.18;75.34;99202.19;5053781;28;20027;-74
2023/03/05 03:38:40;;;;;;;8.85;4.63;;;;;;;2.03;76.24;99171.69;5053493;28;20036;-73
2023/03/05 03:41:07;;;;;;;6.70;3.75;;;;;;;1.96;76.35;99163.25;5053615;28;20431;-73
2023/03/05 03:43:33;;;;;;;7.90;4.05;;;;;;;2.02;76.82;99172.53;5053335;28;20075;-73
2023/03/05 03:45:59;;;;;;;12.13;4.55;;;;;;;2.13;77.23;99188.59;5053411;28;20090;-73
2023/03/05 03:48:24;;;;;;;10.20;4.13;;;;;;;2.02;77.24;99172.53;5053237;28;20033;-73
2023/03/05 03:50:49;;;;;;;10.20;5.10;;;;;;;1.95;77.34;99159.00;5053456;28;20028;-73
2023/03/05 03:53:16;;;;;;;9.40;4.15;;;;;;;1.98;78.10;99164.06;5053168;28;20075;-73
2023/03/05 03:55:42;;;;;;;7.20;3.40;;;;;;;2.12;78.14;99181.78;5053153;28;20033;-73
2023/03/05 03:58:07;;;;;;;6.00;4.07;;;;;;;2.07;78.25;99183.59;5053305;28;20101;-73
2023/03/05 04:00:33;;;;;;;8.57;4.32;;;;;;;1.91;78.31;99145.38;5052928;28;20162;-74
2023/03/05 04:02:58;;;;;;;9.18;4.10;;;;;;;2.07;78.51;99168.19;5052859;28;20029;-73
2023/03/05 04:05:24;;;;;;;6.40;3.13;;;;;;;1.93;78.85;99140.19;5052749;28;20025;-74
2023/03/05 04:07:50;;;;;;;12.07;4.57;;;;;;;2.12;78.91;99162.06;5053061;28;20380;-73
2023/03/05 04:10:15;;;;;;;8.10;4.03;;;;;;;1.99;79.36;99145.22;5052996;28;20388;-74
2023/03/05 04:12:42;;;;;;;7.80;3.20;;;;;;;1.96;79.51;99132.44;5053026;28;20024;-73
2023/03/05 04:15:08;;;;;;;7.75;3.60;;;;;;;2.10;79.31;99156.09;5052824;28;20040;-74
2023/03/05 04:17:34;;;;;;;6.95;3.58;;;;;;;1.97;79.67;99127.25;5052350;28;20100;-74
2023/03/05 04:19:59;;;;;;;9.60;4.05;;;;;;;1.97;80.00;99129.81;5052674;28;20170;-73
2023/03/05 04:22:24;;;;;;;10.02;5.30;;;;;;;2.09;80.06;99138.16;5052723;28;20021;-73
2023/03/05 04:24:50;;;;;;;8.45;4.78;;;;;;;2.07;80.16;99129.66;5051921;28;20049;-74
2023/03/05 04:27:15;;;;;;;7.70;4.07;;;;;;;2.11;80.67;99144.97;5052550;28;20036;-74
2023/03/05 04:29:40;;;;;;;9.05;4.28;;;;;;;2.09;80.65;99138.16;5052284;28;20025;-74
2023/03/05 04:32:06;;;;;;;6.88;4.05;;;;;;;2.06;80.64;99130.50;5052316;28;20051;-73
2023/03/05 04:34:32;;;;;;;9.73;4.18;;;;;;;2.09;80.62;99125.31;5052512;28;20440;-74
2023/03/05 04:36:57;;;;;;;9.10;4.72;;;;;;;2.10;80.75;99132.97;5052702;28;20096;-73
2023/03/05 04:39:23;;;;;;;12.13;5.50;;;;;;;1.96;80.49;99109.31;5052496;28;20052;-74
2023/03/05 04:41:48;;;;;;;7.93;4.07;;;;;;;2.04;80.55;99115.16;5052278;28;20108;-73
2023/03/05 04:44:14;;;;;;;8.50;3.78;;;;;;;1.94;80.47;99096.53;5052160;28;20029;-74
2023/03/05 04:46:39;;;;;;;7.07;3.97;;;;;;;1.94;80.53;99100.81;5052010;28;20029;-73
2023/03/05 04:49:05;;;;;;;8.80;3.95;;;;;;;2.10;80.65;99132.16;5052141;28;20033;-74
2023/03/05 04:51:30;;;;;;;8.23;4.28;;;;;;;1.79;80.76;99081.41;5052050;28;20033;-74
2023/03/05 04:53:56;;;;;;;11.13;4.60;;;;;;;1.92;81.32;99094.84;5052107;28;20024;-74
2023/03/05 04:56:21;;;;;;;9.07;4.45;;;;;;;2.12;81.98;99120.97;5052109;28;20055;-74
2023/03/05 04:58:47;;;;;;;14.63;7.43;;;;;;;1.91;84.00;99085.47;5051821;28;20540;-74
2023/03/05 05:01:12;;;;;;;14.27;6.38;;;;;;;1.81;85.65;99089.91;5051992;28;20408;-74
2023/03/05 05:03:37;;;;;;;9.52;4.65;;;;;;;1.88;86.75;99103.50;5051773;28;20021;-74
2023/03/05 05:06:03;;;;;;;10.15;4.78;;;;;;;1.64;88.11;99079.13;5052233;28;20036;-74
2023/03/05 05:08:28;;;;;;;9.02;4.53;;;;;;;1.73;88.36;99102.94;5051709;28;20040;-74
2023/03/05 05:11:03;;;;;;;7.50;3.85;;;;;;;1.77;88.97;99105.41;5051924;28;20051;-74
2023/03/05 05:13:29;;;;;;;8.07;3.72;;;;;;;1.69;89.16;99082.47;5051576;28;20074;-74
2023/03/05 05:15:55;;;;;;;7.68;3.80;;;;;;;1.81;89.36;99095.06;5051704;28;20029;-74
2023/03/05 05:18:21;;;;;;;6.80;3.75;;;;;;;1.68;89.93;99070.50;5052124;28;20388;-74
2023/03/05 05:20:46;;;;;;;7.28;3.72;;;;;;;1.66;90.30;99072.28;5051755;28;20029;-74
2023/03/05 05:23:12;;;;;;;10.02;4.57;;;;;;;1.63;90.62;99064.63;5051866;28;20167;-74
2023/03/05 05:25:38;;;;;;;7.40;4.47;;;;;;;1.73;90.53;99079.81;5051173;28;20190;-74
2023/03/05 05:28:03;;;;;;;7.68;3.97;;;;;;;1.83;90.53;99093.31;5051820;28;20032;-73
2023/03/05 05:30:29;;;;;;;5.70;4.20;;;;;;;1.79;90.93;99081.41;5051678;28;20025;-73
2023/03/05 05:32:54;;;;;;;9.30;4.97;;;;;;;1.84;91.18;99095.00;5051668;28;20453;-73
2023/03/05 05:35:20;;;;;;;9.80;4.18;;;;;;;1.66;91.21;99060.28;5051863;28;20025;-73
2023/03/05 05:37:45;;;;;;;6.80;4.13;;;;;;;1.81;91.26;99077.06;5053365;28;20132;-73
2023/03/05 05:40:11;;;;;;;10.40;4.97;;;;;;;1.81;91.10;99069.38;5055903;28;20033;-73
2023/03/05 05:42:36;;;;;;;9.35;4.10;;;;;;;1.82;91.42;99070.25;5055393;28;20102;-74
2023/03/05 05:45:02;;;;;;;9.25;4.88;;;;;;;1.58;91.09;99031.34;5055723;28;20037;-73
2023/03/05 05:47:28;;;;;;;11.15;4.53;;;;;;;1.90;90.79;99084.63;5055612;28;20379;-74
2023/03/05 05:49:54;;;;;;;7.30;4.15;;;;;;;1.75;90.46;99051.53;5055535;28;20029;-74
2023/03/05 05:52:19;;;;;;;7.85;5.03;;;;;;;1.92;90.88;99070.00;5056094;28;20037;-74
2023/03/05 05:54:45;;;;;;;10.25;5.78;;;;;;;1.77;91.00;99051.50;5055456;28;20024;-74
2023/03/05 05:57:10;;;;;;;10.02;4.63;;;;;;;1.79;90.47;99042.06;5055604;28;20021;-74
2023/03/05 05:59:36;;;;;;;10.88;4.75;;;;;;;1.82;90.77;99058.25;5055473;28;20031;-74
2023/03/05 06:02:02;;;;;;;10.70;4.93;;;;;;;1.78;90.33;99046.34;5055602;28;20104;-74
2023/03/05 06:04:27;;;;;;;11.95;5.63;;;;;;;1.78;90.93;99035.25;5055493;28;20028;-73
2023/03/05 06:06:53;;;;;;;10.90;4.97;;;;;;;1.90;91.17;99063.22;5055142;28;20025;-73
2023/03/05 06:09:18;;;;;;;12.52;5.60;;;;;;;1.97;90.87;99069.91;5055259;28;20032;-74
2023/03/05 06:11:44;;;;;;;10.13;4.60;;;;;;;1.58;91.03;99004.84;5054903;28;20021;-73
2023/03/05 06:14:11;;;;;;;14.52;6.53;;;;;;;2.00;91.58;99070.69;5055089;28;20514;-74
2023/03/05 06:16:37;;;;;;;10.13;5.07;;;;;;;1.91;91.03;99045.22;5054651;28;20388;-73
2023/03/05 06:19:03;;;;;;;7.50;5.20;;;;;;;2.06;91.37;99067.13;5055163;28;20039;-74
2023/03/05 06:21:29;;;;;;;14.13;5.70;;;;;;;2.00;91.73;99065.56;5055067;28;20491;-74
2023/03/05 06:23:57;;;;;;;14.13;6.47;;;;;;;2.05;91.64;99062.03;5054530;28;20044;-74
2023/03/05 06:26:23;;;;;;;10.52;6.18;;;;;;;1.97;92.20;99046.78;5054744;28;20254;-73
2023/03/05 06:28:48;;;;;;;12.40;5.63;;;;;;;1.94;92.20;99042.59;5054603;28;20103;-73
2023/03/05 06:31:16;;;;;;;12.85;6.20;;;;;;;1.87;92.65;99032.47;5054948;28;20024;-74
2023/03/05 06:33:42;;;;;;;13.45;6.47;;;;;;;1.95;92.96;99043.44;5054734;28;20366;-74
2023/03/05 06:36:13;;;;;;;13.27;5.90;;;;;;;1.88;93.23;99031.59;5054880;28;20032;-74
2023/03/05 06:38:39;;;;;;;10.68;5.75;;;;;;;1.90;93.54;99035.81;5054566;28;20091;-74
2023/03/05 06:41:10;;;;;;;15.38;6.70;;;;;;;2.09;93.50;99048.25;5054640;28;20546;-74
2023/03/05 06:43:41;;;;;;;12.40;7.00;;;;;;;1.93;93.79;99029.75;5054321;28;20741;-74
2023/03/05 06:46:10;;;;;;;18.33;8.30;;;;;;;2.09;94.24;99053.41;5054477;28;20029;-74
2023/03/05 06:48:36;;;;;;;17.65;7.45;;;;;;;2.05;94.45;99041.50;5053774;28;20041;-74
2023/03/05 06:51:02;;;;;;;19.83;8.13;;;;;;;1.96;94.64;99029.69;5054554;28;20025;-74
2023/03/05 06:53:27;;;;;;;15.00;8.30;;;;;;;2.18;95.02;99046.31;5054562;28;20701;-74
2023/03/05 06:55:53;;;;;;;20.90;9.40;;;;;;;2.24;94.77;99048.78;5053991;28;20388;-74
2023/03/05 06:58:19;;;;;;;19.40;8.07;;;;;;;2.25;95.33;99044.47;5054484;28;20107;-74
2023/03/05 07:00:44;;;;;;;20.95;8.93;;;;;;;2.24;94.85;99028.22;5054271;28;20025;-74
2023/03/05 07:03:10;;;;;;;14.48;7.78;;;;;;;2.20;94.82;99006.03;5054329;28;20239;-74
2023/03/05 07:05:40;;;;;;;23.80;9.07;;;;;;;2.23;94.72;99010.25;5054045;28;20377;-74
2023/03/05 07:08:06;;;;;;;24.60;8.48;;;;;;;2.38;94.94;99042.47;5054023;28;20480;-74
2023/03/05 07:10:31;;;;;;;22.23;9.15;;;;;;;2.23;94.14;99010.25;5053972;28;20032;-73
2023/03/05 07:12:57;;;;;;;25.63;11.15;;;;;;;2.21;94.49;99015.44;5053937;28;20130;-73
2023/03/05 07:15:23;;;;;;;20.42;10.13;;;;;;;2.29;94.24;99017.00;5053501;28;20051;-74
2023/03/05 07:17:48;;;;;;;24.08;10.98;;;;;;;2.32;93.37;99029.75;5053747;28;20112;-74
2023/03/05 07:20:14;;;;;;;19.23;7.47;;;;;;;2.43;93.00;99041.47;5054092;28;20055;-74
2023/03/05 07:22:39;;;;;;;19.75;7.13;;;;;;;2.49;92.93;99043.91;5053694;28;20037;-74
2023/03/05 07:25:05;;;;;;;25.23;8.82;;;;;;;2.46;91.88;99049.13;5053753;28;20044;-74
2023/03/05 07:27:34;;;;;;;25.80;13.27;;;;;;;2.44;92.02;99027.75;5053997;28;20032;-74
2023/03/05 07:29:59;;;;;;;19.60;5.57;;;;;;;2.48;90.89;99031.91;5053613;28;20043;-74
2023/03/05 07:32:25;;;;;;;18.10;7.88;;;;;;;2.41;91.11;99009.00;5054094;28;20107;-74
2023/03/05 07:34:50;;;;;;;21.00;7.65;;;;;;;2.44;90.68;99001.19;5053455;28;20461;-74
2023/03/05 07:37:15;;;;;;;17.60;6.75;;;;;;;2.29;89.87;98992.13;5053612;28;20029;-74
2023/03/05 07:39:40;;;;;;;19.27;6.70;;;;;;;2.51;89.67;99036.16;5053273;28;20029;-74
2023/03/05 07:42:06;;;;;;;17.38;8.10;;;;;;;2.39;88.97;99013.31;5053714;28;20031;-74
2023/03/05 07:44:31;;;;;;;17.35;6.72;;;;;;;2.56;88.17;99034.31;5053460;28;20025;-74
2023/03/05 07:46:56;;;;;;;25.25;9.82;;;;;;;2.60;87.49;99030.78;5053629;28;20683;-74
2023/03/05 07:49:22;;;;;;;21.08;8.88;;;;;;;2.56;86.30;99018.03;5053427;28;20425;-74
2023/03/05 07:51:48;;;;;;;26.95;7.80;;;;;;;2.61;85.36;99032.50;5053165;28;20115;-74
2023/03/05 07:54:13;;;;;;;18.92;8.68;;;;;;;2.64;84.55;99032.41;5053228;28;20021;-74
2023/03/05 07:56:38;;;;;;;13.60;5.40;;;;;;;2.53;83.99;99034.41;5052995;28;20029;-74
2023/03/05 07:59:07;;;;;;;27.23;11.98;;;;;;;2.38;82.91;99033.03;5052991;28;20116;-74
2023/03/05 08:01:33;;;;;;;19.42;6.05;;;;;;;2.11;83.36;98984.88;5052543;28;20044;-74
2023/03/05 08:03:58;;;;;;;30.42;12.80;;;;;;;2.40;82.76;99028.72;5052841;28;20901;-74
2023/03/05 08:06:24;;;;;;;15.63;7.32;;;;;;;2.20;82.95;98998.34;5053003;28;20033;-74
2023/03/05 08:08:49;;;;;;;18.90;11.25;;;;;;;2.14;82.81;98977.91;5052652;28;20025;-74
2023/03/05 08:11:15;;;;;;;19.52;9.80;;;;;;;2.54;82.39;99028.38;5053019;28;20021;-74
2023/03/05 08:13:42;;;;;;;21.58;11.02;;;;;;;2.53;81.69;99006.13;5052881;28;20029;-74
2023/03/05 08:16:12;;;;;;;41.50;25.70;;;;;;;2.74;81.58;99023.59;5052852;28;20539;-74
2023/03/05 08:18:37;;;;;;;15.73;8.25;;;;;;;2.77;81.18;99025.22;5052949;28;20021;-74
2023/03/05 08:21:03;;;;;;;23.13;7.30;;;;;;;2.79;80.21;99018.34;5052494;28;20034;-74
2023/03/05 08:23:29;;;;;;;37.95;15.65;;;;;;;2.96;79.83;99034.19;5052673;28;20083;-74
2023/03/05 08:25:55;;;;;;;34.30;12.63;;;;;;;3.00;78.72;99034.94;5052595;28;20045;-74
2023/03/05 08:28:20;;;;;;;33.25;15.45;;;;;;;2.87;78.64;99015.56;5052755;28;20028;-74
2023/03/05 08:30:46;;;;;;;15.25;7.22;;;;;;;2.80;79.06;99019.19;5052404;28;20029;-73
2023/03/05 08:33:13;;;;;;;14.98;5.50;;;;;;;2.84;78.85;99039.63;5052553;28;20036;-74
2023/03/05 08:35:38;;;;;;;15.52;6.22;;;;;;;2.55;79.38;99017.22;5052463;28;20025;-73
2023/03/05 08:38:04;;;;;;;20.35;10.02;;;;;;;2.68;79.77;99031.44;5052122;28;20134;-73
2023/03/05 08:40:29;;;;;;;14.32;4.78;;;;;;;2.59;79.54;99016.25;5052635;28;20036;-73
2023/03/05 08:42:55;;;;;;;17.40;5.68;;;;;;;2.60;79.96;99028.22;5052506;28;20400;-73
2023/03/05 08:45:20;;;;;;;18.35;8.48;;;;;;;2.44;79.99;99006.31;5052496;28;20024;-73
2023/03/05 08:47:45;;;;;;;20.80;5.55;;;;;;;2.51;80.23;99020.72;5052123;28;20021;-73
2023/03/05 08:50:11;;;;;;;64.10;36.65;;;;;;;2.54;80.72;99017.25;5052223;28;20477;-73
2023/03/05 08:52:36;;;;;;;16.75;7.68;;;;;;;2.65;80.74;99033.25;5051905;28;20048;-73
2023/03/05 08:55:02;;;;;;;22.65;11.93;;;;;;;2.61;80.30;99032.50;5052191;28;20389;-73
2023/03/05 08:57:27;;;;;;;30.08;14.50;;;;;;;2.60;80.31;99022.22;5052205;28;20473;-73
2023/03/05 08:59:53;;;;;;;14.60;6.95;;;;;;;2.63;80.67;99030.72;5051959;28;20498;-73
2023/03/05 09:02:18;;;;;;;18.23;9.38;;;;;;;2.62;80.39;98998.19;5052091;28;20036;-73
2023/03/05 09:04:43;;;;;;;17.30;8.48;;;;;;;2.79;80.73;99023.47;5051545;28;20033;-73
2023/03/05 09:07:09;;;;;;;19.23;9.13;;;;;;;2.69;80.95;99004.00;5051833;28;20112;-73
2023/03/05 09:09:35;;;;;;;18.30;6.95;;;;;;;2.89;80.63;99026.66;5052089;28;20071;-73
2023/03/05 09:12:01;;;;;;;12.05;6.38;;;;;;;2.75;80.70;99007.28;5051575;28;20025;-73
2023/03/05 09:14:27;;;;;;;38.85;21.05;;;;;;;2.75;80.51;99009.84;5051970;28;20036;-73
2023/03/05 09:16:56;;;;;;;33.28;19.17;;;;;;;2.78;81.39;99031.22;5051607;28;20083;-73
2023/03/05 09:19:22;;;;;;;34.30;23.58;;;;;;;2.68;81.98;99012.59;5051842;28;20033;-73
2023/03/05 09:21:48;;;;;;;21.60;13.00;;;;;;;2.60;82.43;98997.38;5051496;28;20028;-74
2023/03/05 09:24:13;;;;;;;16.05;6.75;;;;;;;2.78;82.90;99028.63;5051619;28;20416;-74
2023/03/05 09:26:40;;;;;;;11.00;5.97;;;;;;;2.79;82.92;99020.06;5051590;28;20396;-74
2023/03/05 09:29:07;;;;;;;16.35;7.22;;;;;;;2.80;83.29;99006.31;5051539;28;20039;-74
2023/03/05 09:31:33;;;;;;;12.07;4.72;;;;;;;2.81;83.19;98993.41;5051794;28;20400;-74
2023/03/05 09:33:59;;;;;;;11.73;4.72;;;;;;;2.89;83.06;98994.06;5047704;28;20373;-74
2023/03/05 09:36:27;;;;;;;12.55;7.80;;;;;;;3.13;83.30;99018.31;5032599;28;20021;-73
2023/03/05 09:38:53;;;;;;;16.30;6.97;;;;;;;3.16;82.95;99018.22;5031349;28;20035;-73
2023/03/05 09:41:55;;;;;;;14.23;5.97;;;;;;;3.22;82.51;99023.19;5031399;28;20029;-74
2023/03/05 09:44:43;;;;;;;14.38;7.53;;;;;;;3.10;82.51;98997.78;5031176;28;20025;-73
2023/03/05 09:47:34;;;;;;;17.90;9.73;;;;;;;3.22;82.44;99019.78;5029989;28;20354;-74
2023/03/05 09:50:17;;;;;;;15.63;6.55;;;;;;;3.18;82.17;99010.47;5030787;28;20527;-73
2023/03/05 09:52:49;;;;;;;15.23;7.15;;;;;;;3.36;82.31;99021.97;5045839;28;20385;-73
2023/03/05 09:55:25;;;;;;;18.90;9.35;;;;;;;3.35;81.28;99002.28;5031024;28;20057;-73
2023/03/05 09:57:55;;;;;;;22.77;7.45;;;;;;;3.56;80.58;99019.69;5031325;28;20063;-74
2023/03/05 10:00:40;;;;;;;15.75;7.35;;;;;;;3.47;79.78;98991.66;5030917;28;20030;-74
2023/03/05 10:03:13;;;;;;;16.83;10.38;;;;;;;3.52;79.79;98992.34;5030936;28;20030;-74
2023/03/05 10:05:54;;;;;;;21.05;9.13;;;;;;;3.60;79.24;98992.97;5030898;28;20033;-74
2023/03/05 10:08:27;;;;;;;20.58;9.15;;;;;;;3.72;78.68;99008.06;5031177;28;20021;-74
2023/03/05 10:10:53;;;;;;;17.65;9.35;;;;;;;3.68;77.74;99005.63;5030748;28;20040;-74
2023/03/05 10:13:25;;;;;;;13.82;6.15;;;;;;;3.82;77.47;99003.50;5030978;28;20075;-73
2023/03/05 10:16:03;;;;;;;10.75;5.53;;;;;;;3.80;76.49;99001.88;5030627;28;20633;-74
2023/03/05 10:18:49;;;;;;;17.58;6.72;;;;;;;3.86;76.93;98999.94;5031064;28;20032;-74
2023/03/05 10:21:29;;;;;;;17.55;8.27;;;;;;;4.00;76.69;99002.97;5031052;28;20048;-74
2023/03/05 10:24:10;;;;;;;24.25;12.00;;;;;;;4.08;76.90;98996.72;5032592;28;20450;-74
2023/03/05 10:26:58;;;;;;;16.33;7.05;;;;;;;3.97;75.79;98985.00;5034693;28;20045;-74
2023/03/05 10:29:44;;;;;;;11.88;6.40;;;;;;;4.12;75.55;98988.00;5034582;28;20034;-74
2023/03/05 10:32:31;;;;;;;21.17;8.85;;;;;;;4.23;75.50;98985.94;5034179;28;20136;-73
2023/03/05 10:34:57;;;;;;;19.58;6.00;;;;;;;4.25;74.42;98979.81;5034005;28;20029;-74
2023/03/05 10:37:45;;;;;;;30.17;17.35;;;;;;;4.36;74.97;98974.34;5034213;28;20025;-74
2023/03/05 10:40:23;;;;;;;25.20;13.02;;;;;;;4.46;75.55;98965.41;5033930;28;20074;-74
2023/03/05 10:43:01;;;;;;;17.85;7.72;;;;;;;4.43;74.66;98964.69;5034130;28;20056;-74
2023/03/05 10:45:44;;;;;;;24.35;11.73;;;;;;;4.40;72.80;98950.13;5033139;28;20389;-73
2023/03/05 10:48:32;;;;;;;18.17;9.05;;;;;;;4.33;72.50;98940.06;5033747;28;20063;-73
2023/03/05 10:51:21;;;;;;;37.78;16.52;;;;;;;4.45;72.02;98955.16;5033675;28;20029;-74
2023/03/05 10:53:51;;;;;;;33.97;15.50;;;;;;;4.31;72.23;98927.25;5034243;28;20095;-74
2023/03/05 10:56:20;;;;;;;12.48;7.32;;;;;;;4.30;72.45;98947.91;5033845;28;20026;-73
2023/03/05 10:58:45;;;;;;;19.13;10.50;;;;;;;4.11;72.16;98920.16;5033965;28;20060;-73
2023/03/05 11:01:11;;;;;;;38.75;18.25;;;;;;;4.20;72.86;98947.34;5033786;28;20108;-74
2023/03/05 11:03:51;;;;;;;18.50;8.10;;;;;;;4.07;72.46;98946.91;5033915;28;20049;-74
2023/03/05 11:06:27;;;;;;;14.02;8.18;;;;;;;4.09;72.97;98942.56;5034090;28;20080;-75
2023/03/05 11:08:52;;;;;;;15.43;7.55;;;;;;;3.98;73.29;98919.69;5033595;28;20144;-74
2023/03/05 11:11:19;;;;;;;12.60;6.65;;;;;;;4.01;72.72;98926.50;5033926;28;20104;-74
2023/03/05 11:13:51;;;;;;;15.70;9.02;;;;;;;4.03;73.02;98940.16;5033833;28;20087;-75
2023/03/05 11:16:26;;;;;;;21.38;12.57;;;;;;;3.94;73.32;98953.34;5033362;28;20026;-74
2023/03/05 11:19:23;;;;;;;16.92;8.88;;;;;;;3.84;73.81;98952.78;5033611;28;20030;-74
2023/03/05 11:22:16;;;;;;;29.75;15.07;;;;;;;3.68;75.23;98916.34;5034027;28;20032;-74
2023/03/05 11:24:45;;;;;;;14.95;8.23;;;;;;;3.68;76.09;98910.34;5033527;28;20433;-74
2023/03/05 11:27:33;;;;;;;14.13;7.88;;;;;;;3.90;75.95;98924.25;5033607;28;20028;-74
2023/03/05 11:29:59;;;;;;;14.40;7.82;;;;;;;4.04;75.50;98930.69;5035761;28;20041;-74
2023/03/05 11:32:27;;;;;;;13.43;6.25;;;;;;;4.04;75.20;98918.66;5053653;28;20036;-74
2023/03/05 11:34:54;;;;;;;42.17;13.48;;;;;;;4.08;75.40;98922.81;5053274;28;20094;-74
2023/03/05 11:37:29;;;;;;;16.80;6.88;;;;;;;4.00;75.83;98923.09;5053377;28;20044;-74